sensor_id;sensor_type;location;lat;lon;timestamp;P1;durP1;ratioP1;P2;durP2;ratioP2
41829;SDS011;38614;43.472;23.936;2023-03-26T00:00:46;1.83;;;0.20;;
41829;SDS011;38614;43.472;23.936;2023-03-26T00:03:36;0.22;;;0.10;;
41829;SDS011;38614;43.472;23.936;2023-03-26T00:06:26;0.82;;;0.50;;
41829;SDS011;38614;43.472;23.936;2023-03-26T00:09:21;4.93;;;0.30;;
41829;SDS011;38614;43.472;23.936;2023-03-26T00:12:09;1.52;;;0.10;;
41829;SDS011;38614;43.472;23.936;2023-03-26T00:14:56;2.30;;;0.45;;
41829;SDS011;38614;43.472;23.936;2023-03-26T00:17:44;2.70;;;0.20;;
41829;SDS011;38614;43.472;23.936;2023-03-26T00:20:32;0.30;;;0.10;;
41829;SDS011;38614;43.472;23.936;2023-03-26T00:23:20;2.08;;;0.35;;
41829;SDS011;38614;43.472;23.936;2023-03-26T00:26:08;0.45;;;0.20;;
41829;SDS011;38614;43.472;23.936;2023-03-26T00:28:56;1.92;;;0.93;;
41829;SDS011;38614;43.472;23.936;2023-03-26T00:31:46;0.73;;;0.28;;
41829;SDS011;38614;43.472;23.936;2023-03-26T00:34:34;0.88;;;0.28;;
41829;SDS011;38614;43.472;23.936;2023-03-26T00:37:22;0.85;;;0.17;;
41829;SDS011;38614;43.472;23.936;2023-03-26T00:40:13;0.38;;;0.10;;
41829;SDS011;38614;43.472;23.936;2023-03-26T00:43:01;1.10;;;0.10;;
41829;SDS011;38614;43.472;23.936;2023-03-26T00:45:56;1.10;;;0.32;;
41829;SDS011;38614;43.472;23.936;2023-03-26T00:48:45;0.28;;;0.15;;
41829;SDS011;38614;43.472;23.936;2023-03-26T00:51:33;0.98;;;0.30;;
41829;SDS011;38614;43.472;23.936;2023-03-26T00:54:21;1.75;;;0.20;;
41829;SDS011;38614;43.472;23.936;2023-03-26T00:57:08;0.98;;;0.10;;
41829;SDS011;38614;43.472;23.936;2023-03-26T00:59:56;0.10;;;0.00;;
41829;SDS011;38614;43.472;23.936;2023-03-26T01:02:44;1.70;;;0.10;;
41829;SDS011;38614;43.472;23.936;2023-03-26T01:08:23;0.20;;;0.10;;
41829;SDS011;38614;43.472;23.936;2023-03-26T01:14:05;0.90;;;0.17;;
41829;SDS011;38614;43.472;23.936;2023-03-26T01:16:58;1.20;;;0.10;;
41829;SDS011;38614;43.472;23.936;2023-03-26T01:19:56;0.95;;;0.20;;
41829;SDS011;38614;43.472;23.936;2023-03-26T01:23:01;0.55;;;0.20;;
41829;SDS011;38614;43.472;23.936;2023-03-26T01:32:29;0.10;;;0.00;;
41829;SDS011;38614;43.472;23.936;2023-03-26T01:35:59;0.17;;;0.10;;
41829;SDS011;38614;43.472;23.936;2023-03-26T01:38:58;0.68;;;0.10;;
41829;SDS011;38614;43.472;23.936;2023-03-26T01:42:10;1.17;;;0.10;;
41829;SDS011;38614;43.472;23.936;2023-03-26T01:45:09;0.05;;;0.00;;
41829;SDS011;38614;43.472;23.936;2023-03-26T01:47:59;0.00;;;0.00;;
41829;SDS011;38614;43.472;23.936;2023-03-26T01:50:48;0.20;;;0.00;;
41829;SDS011;38614;43.472;23.936;2023-03-26T01:53:40;0.20;;;0.03;;
41829;SDS011;38614;43.472;23.936;2023-03-26T01:56:46;0.88;;;0.20;;
41829;SDS011;38614;43.472;23.936;2023-03-26T02:06:22;1.40;;;0.70;;
41829;SDS011;38614;43.472;23.936;2023-03-26T02:09:19;1.00;;;0.55;;
41829;SDS011;38614;43.472;23.936;2023-03-26T02:12:15;1.73;;;0.93;;
41829;SDS011;38614;43.472;23.936;2023-03-26T02:15:04;0.93;;;0.82;;
41829;SDS011;38614;43.472;23.936;2023-03-26T02:17:53;1.83;;;0.68;;
41829;SDS011;38614;43.472;23.936;2023-03-26T02:20:41;0.57;;;0.55;;
41829;SDS011;38614;43.472;23.936;2023-03-26T02:23:31;1.00;;;0.70;;
41829;SDS011;38614;43.472;23.936;2023-03-26T02:26:22;0.80;;;0.80;;
41829;SDS011;38614;43.472;23.936;2023-03-26T02:29:30;1.33;;;1.00;;
41829;SDS011;38614;43.472;23.936;2023-03-26T02:32:18;0.55;;;0.52;;
41829;SDS011;38614;43.472;23.936;2023-03-26T02:35:06;2.10;;;1.00;;
41829;SDS011;38614;43.472;23.936;2023-03-26T02:37:54;2.13;;;1.05;;
41829;SDS011;38614;43.472;23.936;2023-03-26T02:40:42;0.60;;;0.50;;
41829;SDS011;38614;43.472;23.936;2023-03-26T02:43:30;0.70;;;0.70;;
41829;SDS011;38614;43.472;23.936;2023-03-26T02:46:18;0.80;;;0.77;;
41829;SDS011;38614;43.472;23.936;2023-03-26T02:49:35;0.70;;;0.70;;
41829;SDS011;38614;43.472;23.936;2023-03-26T02:52:22;0.47;;;0.43;;
41829;SDS011;38614;43.472;23.936;2023-03-26T02:55:12;0.95;;;0.70;;
41829;SDS011;38614;43.472;23.936;2023-03-26T02:58:01;2.85;;;0.90;;
41829;SDS011;38614;43.472;23.936;2023-03-26T03:00:54;0.88;;;0.88;;
41829;SDS011;38614;43.472;23.936;2023-03-26T03:03:48;0.70;;;0.57;;
41829;SDS011;38614;43.472;23.936;2023-03-26T03:06:45;1.30;;;1.05;;
41829;SDS011;38614;43.472;23.936;2023-03-26T03:09:33;1.65;;;0.88;;
41829;SDS011;38614;43.472;23.936;2023-03-26T03:12:59;1.48;;;1.00;;
41829;SDS011;38614;43.472;23.936;2023-03-26T03:15:47;1.67;;;1.58;;
41829;SDS011;38614;43.472;23.936;2023-03-26T03:18:35;1.20;;;1.10;;
41829;SDS011;38614;43.472;23.936;2023-03-26T03:21:27;6.57;;;1.60;;
41829;SDS011;38614;43.472;23.936;2023-03-26T03:24:15;3.40;;;1.83;;
41829;SDS011;38614;43.472;23.936;2023-03-26T03:27:07;2.03;;;1.43;;
41829;SDS011;38614;43.472;23.936;2023-03-26T03:30:02;4.05;;;1.67;;
41829;SDS011;38614;43.472;23.936;2023-03-26T03:33:05;1.33;;;1.15;;
41829;SDS011;38614;43.472;23.936;2023-03-26T03:35:53;1.80;;;1.25;;
41829;SDS011;38614;43.472;23.936;2023-03-26T03:38:45;2.38;;;1.33;;
41829;SDS011;38614;43.472;23.936;2023-03-26T03:41:37;1.52;;;1.20;;
41829;SDS011;38614;43.472;23.936;2023-03-26T03:44:32;1.63;;;1.52;;
41829;SDS011;38614;43.472;23.936;2023-03-26T03:47:24;2.20;;;1.55;;
41829;SDS011;38614;43.472;23.936;2023-03-26T03:50:12;1.50;;;1.23;;
41829;SDS011;38614;43.472;23.936;2023-03-26T03:53:12;2.67;;;2.22;;
41829;SDS011;38614;43.472;23.936;2023-03-26T03:56:09;1.77;;;1.48;;
41829;SDS011;38614;43.472;23.936;2023-03-26T03:59:17;3.28;;;2.13;;
41829;SDS011;38614;43.472;23.936;2023-03-26T04:02:08;3.88;;;1.83;;
41829;SDS011;38614;43.472;23.936;2023-03-26T04:05:03;3.97;;;1.40;;
41829;SDS011;38614;43.472;23.936;2023-03-26T04:07:58;3.92;;;1.80;;
41829;SDS011;38614;43.472;23.936;2023-03-26T04:10:46;3.28;;;2.03;;
41829;SDS011;38614;43.472;23.936;2023-03-26T04:13:57;3.97;;;2.88;;
41829;SDS011;38614;43.472;23.936;2023-03-26T04:17:12;3.40;;;2.50;;
41829;SDS011;38614;43.472;23.936;2023-03-26T04:20:03;3.90;;;2.40;;
41829;SDS011;38614;43.472;23.936;2023-03-26T04:22:53;9.27;;;2.28;;
41829;SDS011;38614;43.472;23.936;2023-03-26T04:25:45;4.93;;;2.67;;
41829;SDS011;38614;43.472;23.936;2023-03-26T04:28:48;3.42;;;2.65;;
41829;SDS011;38614;43.472;23.936;2023-03-26T04:31:45;3.50;;;2.55;;
41829;SDS011;38614;43.472;23.936;2023-03-26T04:34:37;2.50;;;2.30;;
41829;SDS011;38614;43.472;23.936;2023-03-26T04:37:30;1.98;;;1.88;;
41829;SDS011;38614;43.472;23.936;2023-03-26T04:40:29;6.68;;;1.40;;
41829;SDS011;38614;43.472;23.936;2023-03-26T04:43:37;2.67;;;2.45;;
41829;SDS011;38614;43.472;23.936;2023-03-26T04:46:52;11.15;;;2.38;;
41829;SDS011;38614;43.472;23.936;2023-03-26T04:50:02;5.32;;;2.22;;
41829;SDS011;38614;43.472;23.936;2023-03-26T04:52:51;3.25;;;2.30;;
41829;SDS011;38614;43.472;23.936;2023-03-26T04:56:16;3.05;;;2.55;;
41829;SDS011;38614;43.472;23.936;2023-03-26T04:59:34;2.40;;;1.88;;
41829;SDS011;38614;43.472;23.936;2023-03-26T05:02:28;2.42;;;2.25;;
41829;SDS011;38614;43.472;23.936;2023-03-26T05:05:19;3.55;;;2.00;;
41829;SDS011;38614;43.472;23.936;2023-03-26T05:08:08;3.55;;;1.95;;
41829;SDS011;38614;43.472;23.936;2023-03-26T05:10:56;2.47;;;2.15;;
41829;SDS011;38614;43.472;23.936;2023-03-26T05:13:50;2.33;;;1.45;;
41829;SDS011;38614;43.472;23.936;2023-03-26T05:16:43;1.95;;;1.83;;
41829;SDS011;38614;43.472;23.936;2023-03-26T05:19:41;2.65;;;1.85;;
41829;SDS011;38614;43.472;23.936;2023-03-26T05:22:29;2.10;;;1.35;;
41829;SDS011;38614;43.472;23.936;2023-03-26T05:25:29;3.15;;;1.10;;
41829;SDS011;38614;43.472;23.936;2023-03-26T05:28:19;1.45;;;0.85;;
41829;SDS011;38614;43.472;23.936;2023-03-26T05:31:16;1.55;;;1.20;;
41829;SDS011;38614;43.472;23.936;2023-03-26T05:34:11;2.00;;;1.08;;
41829;SDS011;38614;43.472;23.936;2023-03-26T05:36:59;1.17;;;1.08;;
41829;SDS011;38614;43.472;23.936;2023-03-26T05:40:05;1.20;;;1.10;;
41829;SDS011;38614;43.472;23.936;2023-03-26T05:43:05;6.88;;;1.25;;
41829;SDS011;38614;43.472;23.936;2023-03-26T05:45:56;2.35;;;1.05;;
41829;SDS011;38614;43.472;23.936;2023-03-26T05:48:48;1.60;;;0.98;;
41829;SDS011;38614;43.472;23.936;2023-03-26T05:51:38;1.55;;;0.80;;
41829;SDS011;38614;43.472;23.936;2023-03-26T05:54:48;1.45;;;0.73;;
41829;SDS011;38614;43.472;23.936;2023-03-26T05:57:54;0.90;;;0.60;;
41829;SDS011;38614;43.472;23.936;2023-03-26T06:01:05;1.75;;;0.65;;
41829;SDS011;38614;43.472;23.936;2023-03-26T06:04:15;3.00;;;0.77;;
41829;SDS011;38614;43.472;23.936;2023-03-26T06:07:21;0.80;;;0.35;;
41829;SDS011;38614;43.472;23.936;2023-03-26T06:10:27;4.82;;;0.50;;
41829;SDS011;38614;43.472;23.936;2023-03-26T06:13:16;0.90;;;0.52;;
41829;SDS011;38614;43.472;23.936;2023-03-26T06:16:05;0.40;;;0.35;;
41829;SDS011;38614;43.472;23.936;2023-03-26T06:19:02;0.77;;;0.73;;
41829;SDS011;38614;43.472;23.936;2023-03-26T06:22:16;1.02;;;0.50;;
41829;SDS011;38614;43.472;23.936;2023-03-26T06:25:24;3.20;;;0.25;;
41829;SDS011;38614;43.472;23.936;2023-03-26T06:28:27;0.68;;;0.52;;
41829;SDS011;38614;43.472;23.936;2023-03-26T06:31:56;5.20;;;0.20;;
41829;SDS011;38614;43.472;23.936;2023-03-26T06:35:23;1.38;;;0.98;;
41829;SDS011;38614;43.472;23.936;2023-03-26T06:39:02;0.70;;;0.30;;
41829;SDS011;38614;43.472;23.936;2023-03-26T06:41:57;0.43;;;0.17;;
41829;SDS011;38614;43.472;23.936;2023-03-26T06:45:14;1.45;;;0.43;;
41829;SDS011;38614;43.472;23.936;2023-03-26T06:48:20;2.58;;;0.20;;
41829;SDS011;38614;43.472;23.936;2023-03-26T06:51:37;0.70;;;0.30;;
41829;SDS011;38614;43.472;23.936;2023-03-26T06:54:46;0.65;;;0.25;;
41829;SDS011;38614;43.472;23.936;2023-03-26T06:57:54;0.60;;;0.40;;
41829;SDS011;38614;43.472;23.936;2023-03-26T07:00:59;5.88;;;0.63;;
41829;SDS011;38614;43.472;23.936;2023-03-26T07:04:05;59.20;;;8.48;;
41829;SDS011;38614;43.472;23.936;2023-03-26T07:07:11;0.65;;;0.30;;
41829;SDS011;38614;43.472;23.936;2023-03-26T07:10:18;0.50;;;0.00;;
41829;SDS011;38614;43.472;23.936;2023-03-26T07:13:35;1.58;;;0.15;;
41829;SDS011;38614;43.472;23.936;2023-03-26T07:16:49;0.15;;;0.08;;
41829;SDS011;38614;43.472;23.936;2023-03-26T07:19:53;0.40;;;0.15;;
41829;SDS011;38614;43.472;23.936;2023-03-26T07:22:44;0.90;;;0.40;;
41829;SDS011;38614;43.472;23.936;2023-03-26T07:25:37;0.60;;;0.25;;
41829;SDS011;38614;43.472;23.936;2023-03-26T07:28:46;0.20;;;0.00;;
41829;SDS011;38614;43.472;23.936;2023-03-26T07:41:55;0.10;;;0.00;;
41829;SDS011;38614;43.472;23.936;2023-03-26T07:45:44;3.95;;;0.17;;
41829;SDS011;38614;43.472;23.936;2023-03-26T07:48:42;0.30;;;0.20;;
41829;SDS011;38614;43.472;23.936;2023-03-26T07:52:09;4.70;;;0.10;;
41829;SDS011;38614;43.472;23.936;2023-03-26T07:55:16;7.03;;;0.20;;
41829;SDS011;38614;43.472;23.936;2023-03-26T08:05:12;1.35;;;0.10;;
41829;SDS011;38614;43.472;23.936;2023-03-26T08:15:09;1.38;;;0.95;;
41829;SDS011;38614;43.472;23.936;2023-03-26T08:27:18;0.40;;;0.10;;
41829;SDS011;38614;43.472;23.936;2023-03-26T08:30:27;0.28;;;0.08;;
41829;SDS011;38614;43.472;23.936;2023-03-26T08:33:18;1.83;;;0.00;;
41829;SDS011;38614;43.472;23.936;2023-03-26T08:36:12;0.35;;;0.15;;
41829;SDS011;38614;43.472;23.936;2023-03-26T08:38:59;1.63;;;0.10;;
41829;SDS011;38614;43.472;23.936;2023-03-26T09:19:39;0.10;;;0.00;;
41829;SDS011;38614;43.472;23.936;2023-03-26T09:35:11;0.65;;;0.00;;
41829;SDS011;38614;43.472;23.936;2023-03-26T09:38:29;0.13;;;0.00;;
41829;SDS011;38614;43.472;23.936;2023-03-26T09:41:42;0.00;;;0.00;;
41829;SDS011;38614;43.472;23.936;2023-03-26T09:47:45;0.10;;;0.00;;
41829;SDS011;38614;43.472;23.936;2023-03-26T09:50:47;0.00;;;0.00;;
41829;SDS011;38614;43.472;23.936;2023-03-26T09:57:27;0.10;;;0.00;;
41829;SDS011;38614;43.472;23.936;2023-03-26T10:06:58;0.65;;;0.05;;
41829;SDS011;38614;43.472;23.936;2023-03-26T10:19:42;1.60;;;0.05;;
41829;SDS011;38614;43.472;23.936;2023-03-26T10:22:44;0.45;;;0.03;;
41829;SDS011;38614;43.472;23.936;2023-03-26T10:28:46;0.32;;;0.00;;
41829;SDS011;38614;43.472;23.936;2023-03-26T10:53:28;1.15;;;0.20;;
41829;SDS011;38614;43.472;23.936;2023-03-26T10:59:18;0.10;;;0.00;;
41829;SDS011;38614;43.472;23.936;2023-03-26T11:02:34;2.25;;;0.00;;
41829;SDS011;38614;43.472;23.936;2023-03-26T11:05:44;1.60;;;0.00;;
41829;SDS011;38614;43.472;23.936;2023-03-26T11:15:21;0.00;;;0.00;;
41829;SDS011;38614;43.472;23.936;2023-03-26T11:21:21;3.20;;;0.00;;
41829;SDS011;38614;43.472;23.936;2023-03-26T11:27:45;3.97;;;0.00;;
41829;SDS011;38614;43.472;23.936;2023-03-26T11:34:10;0.22;;;0.00;;
41829;SDS011;38614;43.472;23.936;2023-03-26T11:37:05;0.77;;;0.00;;
41829;SDS011;38614;43.472;23.936;2023-03-26T11:40:05;2.38;;;0.10;;
41829;SDS011;38614;43.472;23.936;2023-03-26T11:43:10;0.73;;;0.00;;
41829;SDS011;38614;43.472;23.936;2023-03-26T11:46:10;0.85;;;0.10;;
41829;SDS011;38614;43.472;23.936;2023-03-26T11:49:02;0.80;;;0.10;;
41829;SDS011;38614;43.472;23.936;2023-03-26T11:51:55;1.67;;;0.00;;
41829;SDS011;38614;43.472;23.936;2023-03-26T11:54:49;0.28;;;0.00;;
41829;SDS011;38614;43.472;23.936;2023-03-26T11:57:37;0.00;;;0.00;;
41829;SDS011;38614;43.472;23.936;2023-03-26T12:00:29;0.10;;;0.00;;
41829;SDS011;38614;43.472;23.936;2023-03-26T12:03:17;0.77;;;0.00;;
41829;SDS011;38614;43.472;23.936;2023-03-26T12:06:12;0.32;;;0.00;;
41829;SDS011;38614;43.472;23.936;2023-03-26T12:09:16;0.00;;;0.00;;
41829;SDS011;38614;43.472;23.936;2023-03-26T12:12:09;2.70;;;0.00;;
41829;SDS011;38614;43.472;23.936;2023-03-26T12:14:58;0.00;;;0.00;;
41829;SDS011;38614;43.472;23.936;2023-03-26T12:17:48;0.38;;;0.00;;
41829;SDS011;38614;43.472;23.936;2023-03-26T12:20:39;0.75;;;0.00;;
41829;SDS011;38614;43.472;23.936;2023-03-26T12:26:39;0.28;;;0.00;;
41829;SDS011;38614;43.472;23.936;2023-03-26T12:29:28;0.35;;;0.00;;
41829;SDS011;38614;43.472;23.936;2023-03-26T12:32:20;0.28;;;0.00;;
41829;SDS011;38614;43.472;23.936;2023-03-26T12:35:26;0.73;;;0.00;;
41829;SDS011;38614;43.472;23.936;2023-03-26T12:41:41;0.10;;;0.00;;
41829;SDS011;38614;43.472;23.936;2023-03-26T12:44:50;0.00;;;0.00;;
41829;SDS011;38614;43.472;23.936;2023-03-26T12:47:49;0.00;;;0.00;;
41829;SDS011;38614;43.472;23.936;2023-03-26T12:50:57;0.00;;;0.00;;
41829;SDS011;38614;43.472;23.936;2023-03-26T13:00:08;0.00;;;0.00;;
41829;SDS011;38614;43.472;23.936;2023-03-26T13:03:26;0.65;;;0.00;;
41829;SDS011;38614;43.472;23.936;2023-03-26T13:06:38;4.28;;;0.00;;
41829;SDS011;38614;43.472;23.936;2023-03-26T13:10:11;0.30;;;0.05;;
41829;SDS011;38614;43.472;23.936;2023-03-26T13:22:24;0.30;;;0.00;;
41829;SDS011;38614;43.472;23.936;2023-03-26T13:28:48;0.95;;;0.00;;
41829;SDS011;38614;43.472;23.936;2023-03-26T13:39:18;0.50;;;0.10;;
41829;SDS011;38614;43.472;23.936;2023-03-26T13:45:45;0.05;;;0.00;;
41829;SDS011;38614;43.472;23.936;2023-03-26T13:52:18;0.10;;;0.10;;
41829;SDS011;38614;43.472;23.936;2023-03-26T13:55:33;0.20;;;0.00;;
41829;SDS011;38614;43.472;23.936;2023-03-26T14:01:34;1.48;;;0.00;;
41829;SDS011;38614;43.472;23.936;2023-03-26T14:04:35;0.00;;;0.00;;
41829;SDS011;38614;43.472;23.936;2023-03-26T14:07:29;0.43;;;0.10;;
41829;SDS011;38614;43.472;23.936;2023-03-26T14:10:27;0.95;;;0.00;;
41829;SDS011;38614;43.472;23.936;2023-03-26T14:16:49;4.63;;;0.00;;
41829;SDS011;38614;43.472;23.936;2023-03-26T14:22:50;0.10;;;0.00;;
41829;SDS011;38614;43.472;23.936;2023-03-26T14:29:29;1.00;;;0.32;;
41829;SDS011;38614;43.472;23.936;2023-03-26T14:32:23;0.20;;;0.00;;
41829;SDS011;38614;43.472;23.936;2023-03-26T14:35:22;0.10;;;0.10;;
41829;SDS011;38614;43.472;23.936;2023-03-26T14:41:46;6.13;;;0.00;;
41829;SDS011;38614;43.472;23.936;2023-03-26T14:54:23;0.00;;;0.00;;
41829;SDS011;38614;43.472;23.936;2023-03-26T15:13:39;0.20;;;0.10;;
41829;SDS011;38614;43.472;23.936;2023-03-26T15:29:29;4.07;;;0.00;;
41829;SDS011;38614;43.472;23.936;2023-03-26T15:42:26;0.20;;;0.00;;
41829;SDS011;38614;43.472;23.936;2023-03-26T15:45:29;0.98;;;0.20;;
41829;SDS011;38614;43.472;23.936;2023-03-26T15:54:48;1.85;;;0.32;;
41829;SDS011;38614;43.472;23.936;2023-03-26T15:57:38;0.30;;;0.05;;
41829;SDS011;38614;43.472;23.936;2023-03-26T16:00:33;0.47;;;0.10;;
41829;SDS011;38614;43.472;23.936;2023-03-26T16:03:28;0.88;;;0.20;;
41829;SDS011;38614;43.472;23.936;2023-03-26T16:09:48;2.72;;;0.05;;
41829;SDS011;38614;43.472;23.936;2023-03-26T16:22:06;2.22;;;0.57;;
41829;SDS011;38614;43.472;23.936;2023-03-26T16:28:18;4.32;;;0.98;;
41829;SDS011;38614;43.472;23.936;2023-03-26T16:34:28;1.48;;;0.80;;
41829;SDS011;38614;43.472;23.936;2023-03-26T16:40:26;3.92;;;1.30;;
41829;SDS011;38614;43.472;23.936;2023-03-26T16:53:14;7.47;;;3.30;;
41829;SDS011;38614;43.472;23.936;2023-03-26T17:02:30;17.88;;;3.35;;
41829;SDS011;38614;43.472;23.936;2023-03-26T17:05:34;15.43;;;5.25;;
41829;SDS011;38614;43.472;23.936;2023-03-26T17:15:02;14.60;;;5.68;;
41829;SDS011;38614;43.472;23.936;2023-03-26T17:28:47;23.77;;;9.48;;
41829;SDS011;38614;43.472;23.936;2023-03-26T17:31:44;38.20;;;12.82;;
41829;SDS011;38614;43.472;23.936;2023-03-26T17:34:54;23.27;;;8.70;;
41829;SDS011;38614;43.472;23.936;2023-03-26T17:37:46;46.30;;;15.02;;
41829;SDS011;38614;43.472;23.936;2023-03-26T17:40:54;25.15;;;10.15;;
41829;SDS011;38614;43.472;23.936;2023-03-26T17:46:41;17.38;;;7.25;;
41829;SDS011;38614;43.472;23.936;2023-03-26T17:49:34;9.98;;;5.53;;
41829;SDS011;38614;43.472;23.936;2023-03-26T17:52:37;9.70;;;4.88;;
41829;SDS011;38614;43.472;23.936;2023-03-26T17:55:42;11.07;;;5.85;;
41829;SDS011;38614;43.472;23.936;2023-03-26T17:58:36;4.80;;;3.30;;
41829;SDS011;38614;43.472;23.936;2023-03-26T18:01:38;17.45;;;7.53;;
41829;SDS011;38614;43.472;23.936;2023-03-26T18:04:33;17.95;;;7.57;;
41829;SDS011;38614;43.472;23.936;2023-03-26T18:08:10;37.35;;;13.15;;
41829;SDS011;38614;43.472;23.936;2023-03-26T18:11:11;23.92;;;9.52;;
41829;SDS011;38614;43.472;23.936;2023-03-26T18:23:25;109.82;;;40.47;;
41829;SDS011;38614;43.472;23.936;2023-03-26T18:26:37;54.08;;;23.75;;
41829;SDS011;38614;43.472;23.936;2023-03-26T18:30:12;50.53;;;21.95;;
41829;SDS011;38614;43.472;23.936;2023-03-26T18:33:13;32.80;;;14.80;;
41829;SDS011;38614;43.472;23.936;2023-03-26T18:36:02;41.58;;;18.50;;
41829;SDS011;38614;43.472;23.936;2023-03-26T18:38:50;28.98;;;13.70;;
41829;SDS011;38614;43.472;23.936;2023-03-26T18:41:44;20.83;;;8.52;;
41829;SDS011;38614;43.472;23.936;2023-03-26T18:44:34;33.08;;;13.43;;
41829;SDS011;38614;43.472;23.936;2023-03-26T18:47:22;11.45;;;5.90;;
41829;SDS011;38614;43.472;23.936;2023-03-26T18:50:15;20.90;;;6.55;;
41829;SDS011;38614;43.472;23.936;2023-03-26T18:53:17;19.40;;;6.78;;
41829;SDS011;38614;43.472;23.936;2023-03-26T18:56:28;28.65;;;9.38;;
41829;SDS011;38614;43.472;23.936;2023-03-26T18:59:28;29.60;;;10.90;;
41829;SDS011;38614;43.472;23.936;2023-03-26T19:02:18;37.00;;;12.77;;
41829;SDS011;38614;43.472;23.936;2023-03-26T19:05:11;48.50;;;15.18;;
41829;SDS011;38614;43.472;23.936;2023-03-26T19:08:02;55.65;;;21.67;;
41829;SDS011;38614;43.472;23.936;2023-03-26T19:10:52;56.42;;;23.58;;
41829;SDS011;38614;43.472;23.936;2023-03-26T19:13:41;36.80;;;16.60;;
41829;SDS011;38614;43.472;23.936;2023-03-26T19:16:30;48.03;;;17.38;;
41829;SDS011;38614;43.472;23.936;2023-03-26T19:19:30;55.50;;;16.70;;
41829;SDS011;38614;43.472;23.936;2023-03-26T19:22:25;48.88;;;15.90;;
41829;SDS011;38614;43.472;23.936;2023-03-26T19:25:21;56.70;;;18.55;;
41829;SDS011;38614;43.472;23.936;2023-03-26T19:28:29;60.10;;;19.67;;
41829;SDS011;38614;43.472;23.936;2023-03-26T19:37:25;52.15;;;14.95;;
41829;SDS011;38614;43.472;23.936;2023-03-26T19:40:24;37.75;;;10.45;;
41829;SDS011;38614;43.472;23.936;2023-03-26T19:43:16;27.90;;;10.07;;
41829;SDS011;38614;43.472;23.936;2023-03-26T19:46:04;27.17;;;9.88;;
41829;SDS011;38614;43.472;23.936;2023-03-26T19:48:52;38.22;;;12.00;;
41829;SDS011;38614;43.472;23.936;2023-03-26T19:51:42;42.60;;;12.60;;
41829;SDS011;38614;43.472;23.936;2023-03-26T19:54:30;38.30;;;12.82;;
41829;SDS011;38614;43.472;23.936;2023-03-26T19:57:18;45.00;;;11.95;;
41829;SDS011;38614;43.472;23.936;2023-03-26T20:00:06;30.52;;;13.52;;
41829;SDS011;38614;43.472;23.936;2023-03-26T20:02:59;61.00;;;18.27;;
41829;SDS011;38614;43.472;23.936;2023-03-26T20:05:47;138.15;;;41.05;;
41829;SDS011;38614;43.472;23.936;2023-03-26T20:08:40;147.77;;;41.40;;
41829;SDS011;38614;43.472;23.936;2023-03-26T20:11:32;118.60;;;37.90;;
41829;SDS011;38614;43.472;23.936;2023-03-26T20:17:15;72.45;;;21.98;;
41829;SDS011;38614;43.472;23.936;2023-03-26T20:20:05;47.25;;;16.13;;
41829;SDS011;38614;43.472;23.936;2023-03-26T20:22:58;26.00;;;11.05;;
41829;SDS011;38614;43.472;23.936;2023-03-26T20:25:47;31.27;;;10.75;;
41829;SDS011;38614;43.472;23.936;2023-03-26T20:28:37;47.67;;;13.60;;
41829;SDS011;38614;43.472;23.936;2023-03-26T20:31:34;33.10;;;12.05;;
41829;SDS011;38614;43.472;23.936;2023-03-26T20:34:22;35.22;;;10.60;;
41829;SDS011;38614;43.472;23.936;2023-03-26T20:37:10;24.33;;;9.60;;
41829;SDS011;38614;43.472;23.936;2023-03-26T20:39:58;17.95;;;6.20;;
41829;SDS011;38614;43.472;23.936;2023-03-26T20:42:46;15.68;;;6.30;;
41829;SDS011;38614;43.472;23.936;2023-03-26T20:45:34;16.50;;;6.63;;
41829;SDS011;38614;43.472;23.936;2023-03-26T20:48:22;14.02;;;6.10;;
41829;SDS011;38614;43.472;23.936;2023-03-26T20:51:11;19.60;;;7.85;;
41829;SDS011;38614;43.472;23.936;2023-03-26T20:54:01;48.03;;;13.32;;
41829;SDS011;38614;43.472;23.936;2023-03-26T20:56:49;57.03;;;15.48;;
41829;SDS011;38614;43.472;23.936;2023-03-26T20:59:38;43.58;;;11.80;;
41829;SDS011;38614;43.472;23.936;2023-03-26T21:02:26;28.15;;;8.82;;
41829;SDS011;38614;43.472;23.936;2023-03-26T21:05:14;22.13;;;7.28;;
41829;SDS011;38614;43.472;23.936;2023-03-26T21:08:05;21.83;;;6.90;;
41829;SDS011;38614;43.472;23.936;2023-03-26T21:10:54;18.20;;;5.70;;
41829;SDS011;38614;43.472;23.936;2023-03-26T21:13:56;29.83;;;7.55;;
41829;SDS011;38614;43.472;23.936;2023-03-26T21:16:48;14.15;;;6.80;;
41829;SDS011;38614;43.472;23.936;2023-03-26T21:19:36;12.65;;;3.30;;
41829;SDS011;38614;43.472;23.936;2023-03-26T21:22:45;6.55;;;3.20;;
41829;SDS011;38614;43.472;23.936;2023-03-26T21:28:48;7.00;;;3.22;;
41829;SDS011;38614;43.472;23.936;2023-03-26T21:31:36;6.60;;;3.25;;
41829;SDS011;38614;43.472;23.936;2023-03-26T21:34:24;8.23;;;2.70;;
41829;SDS011;38614;43.472;23.936;2023-03-26T21:37:14;3.25;;;1.00;;
41829;SDS011;38614;43.472;23.936;2023-03-26T21:40:04;1.75;;;1.02;;
41829;SDS011;38614;43.472;23.936;2023-03-26T21:43:02;5.30;;;1.52;;
41829;SDS011;38614;43.472;23.936;2023-03-26T21:45:50;10.10;;;2.63;;
41829;SDS011;38614;43.472;23.936;2023-03-26T21:48:40;7.18;;;1.80;;
41829;SDS011;38614;43.472;23.936;2023-03-26T21:51:29;30.90;;;12.30;;
41829;SDS011;38614;43.472;23.936;2023-03-26T21:54:22;22.30;;;8.38;;
41829;SDS011;38614;43.472;23.936;2023-03-26T22:00:50;15.90;;;3.10;;
41829;SDS011;38614;43.472;23.936;2023-03-26T22:06:32;11.20;;;5.43;;
41829;SDS011;38614;43.472;23.936;2023-03-26T22:09:42;42.97;;;28.88;;
41829;SDS011;38614;43.472;23.936;2023-03-26T22:12:31;18.45;;;15.90;;
41829;SDS011;38614;43.472;23.936;2023-03-26T22:15:18;7.47;;;4.65;;
41829;SDS011;38614;43.472;23.936;2023-03-26T22:18:06;6.72;;;3.58;;
41829;SDS011;38614;43.472;23.936;2023-03-26T22:20:54;9.95;;;2.67;;
41829;SDS011;38614;43.472;23.936;2023-03-26T22:23:43;8.77;;;1.70;;
41829;SDS011;38614;43.472;23.936;2023-03-26T22:26:38;5.60;;;1.80;;
41829;SDS011;38614;43.472;23.936;2023-03-26T22:29:26;10.40;;;2.15;;
41829;SDS011;38614;43.472;23.936;2023-03-26T22:32:14;3.13;;;2.10;;
41829;SDS011;38614;43.472;23.936;2023-03-26T22:35:02;11.65;;;3.78;;
41829;SDS011;38614;43.472;23.936;2023-03-26T22:37:54;6.13;;;3.10;;
41829;SDS011;38614;43.472;23.936;2023-03-26T22:40:53;5.75;;;2.38;;
41829;SDS011;38614;43.472;23.936;2023-03-26T22:43:44;8.70;;;3.13;;
41829;SDS011;38614;43.472;23.936;2023-03-26T22:46:42;4.15;;;3.58;;
41829;SDS011;38614;43.472;23.936;2023-03-26T22:49:32;6.38;;;2.75;;
41829;SDS011;38614;43.472;23.936;2023-03-26T22:52:19;8.32;;;2.75;;
41829;SDS011;38614;43.472;23.936;2023-03-26T22:55:07;5.40;;;2.28;;
41829;SDS011;38614;43.472;23.936;2023-03-26T22:57:57;5.28;;;2.72;;
41829;SDS011;38614;43.472;23.936;2023-03-26T23:00:45;9.07;;;4.90;;
41829;SDS011;38614;43.472;23.936;2023-03-26T23:03:33;4.47;;;2.72;;
41829;SDS011;38614;43.472;23.936;2023-03-26T23:06:22;7.10;;;2.78;;
41829;SDS011;38614;43.472;23.936;2023-03-26T23:09:11;6.70;;;3.13;;
41829;SDS011;38614;43.472;23.936;2023-03-26T23:12:01;8.38;;;2.97;;
41829;SDS011;38614;43.472;23.936;2023-03-26T23:14:49;3.63;;;2.20;;
41829;SDS011;38614;43.472;23.936;2023-03-26T23:17:39;12.70;;;3.42;;
41829;SDS011;38614;43.472;23.936;2023-03-26T23:20:26;6.97;;;2.42;;
41829;SDS011;38614;43.472;23.936;2023-03-26T23:23:16;5.45;;;2.30;;
41829;SDS011;38614;43.472;23.936;2023-03-26T23:26:03;4.85;;;2.28;;
41829;SDS011;38614;43.472;23.936;2023-03-26T23:28:53;38.20;;;28.52;;